Time;durP1;ratioP1;P1;durP2;ratioP2;P2;SDS_P1;SDS_P2;PMS_P1;PMS_P2;Temp;Humidity;BMP_temperature;BMP_pressure;BME280_temperature;BME280_humidity;BME280_pressure;Samples;Min_cycle;Max_cycle;Signal;HPM_P1;HPM_P2
2023/08/11 03:32:42;;;;;;;9.57;9.27;;;12.90;99.90;;;;;;6179562;22;20289;-80
2023/08/11 03:35:09;;;;;;;9.80;9.50;;;12.80;99.90;;;;;;6222380;23;20502;-79
2023/08/11 03:37:36;;;;;;;9.90;9.60;;;12.80;99.90;;;;;;6223963;23;20221;-80
2023/08/11 03:40:05;;;;;;;9.83;9.53;;;12.80;99.90;;;;;;6223112;23;20210;-80
2023/08/11 03:42:33;;;;;;;9.90;9.60;;;12.80;99.90;;;;;;6223884;23;20218;-80
2023/08/11 03:45:00;;;;;;;10.37;10.07;;;12.80;99.90;;;;;;6223653;23;20195;-79
2023/08/11 03:47:27;;;;;;;9.97;9.67;;;12.80;99.90;;;;;;6225939;23;20250;-80
2023/08/11 03:49:55;;;;;;;10.43;10.13;;;12.80;99.90;;;;;;6236534;23;20221;-81
2023/08/11 03:52:22;;;;;;;10.33;10.03;;;12.70;99.90;;;;;;6242197;23;20187;-81
2023/08/11 03:54:50;;;;;;;10.40;10.10;;;12.60;99.90;;;;;;6241581;23;20206;-80
2023/08/11 03:57:18;;;;;;;10.27;9.97;;;12.60;99.90;;;;;;6241959;23;20195;-79
2023/08/11 03:59:45;;;;;;;10.20;9.90;;;12.60;99.90;;;;;;6232241;23;20195;-80
2023/08/11 04:02:13;;;;;;;10.30;10.00;;;12.50;99.90;;;;;;6227886;23;20242;-79
2023/08/11 04:04:40;;;;;;;10.30;10.00;;;12.50;99.90;;;;;;6228883;23;20207;-80
2023/08/11 04:07:08;;;;;;;10.20;9.90;;;12.50;99.90;;;;;;6233856;23;20206;-79
2023/08/11 04:09:39;;;;;;;10.20;9.90;;;12.50;99.90;;;;;;6234434;23;20210;-79
2023/08/11 04:12:07;;;;;;;10.50;10.20;;;12.50;99.90;;;;;;6232658;23;20211;-80
2023/08/11 04:14:34;;;;;;;10.30;10.00;;;12.50;99.90;;;;;;6228743;22;20197;-80
2023/08/11 04:17:02;;;;;;;10.23;9.93;;;12.50;99.90;;;;;;6228978;23;20207;-81
2023/08/11 04:19:28;;;;;;;10.40;10.10;;;12.50;99.90;;;;;;6226327;23;20199;-82
2023/08/11 04:21:55;;;;;;;10.10;9.80;;;12.50;99.90;;;;;;6221830;23;20250;-80
2023/08/11 04:24:25;;;;;;;10.17;9.87;;;12.50;99.90;;;;;;6231798;23;20219;-81
2023/08/11 04:26:52;;;;;;;10.20;9.90;;;12.50;99.90;;;;;;6227117;23;20266;-80
2023/08/11 04:29:19;;;;;;;10.03;9.73;;;12.50;99.90;;;;;;6227179;23;20282;-79
2023/08/11 04:31:45;;;;;;;10.10;9.80;;;12.40;99.90;;;;;;6232332;22;20202;-82
2023/08/11 04:34:14;;;;;;;9.83;9.53;;;12.40;99.90;;;;;;6356990;22;20248;-80
2023/08/11 04:36:41;;;;;;;10.00;9.70;;;12.40;99.90;;;;;;6356025;22;20258;-82
2023/08/11 04:39:08;;;;;;;10.10;9.80;;;12.40;99.90;;;;;;6360467;22;20279;-81
2023/08/11 04:41:37;;;;;;;9.87;9.57;;;12.40;99.90;;;;;;6357922;22;20243;-81
2023/08/11 04:44:05;;;;;;;9.93;9.63;;;12.50;99.90;;;;;;6357311;22;20208;-81
2023/08/11 04:46:32;;;;;;;9.67;9.37;;;12.50;99.90;;;;;;6355699;22;20202;-81
2023/08/11 04:49:00;;;;;;;10.23;9.93;;;12.50;99.90;;;;;;6354838;22;20188;-80
2023/08/11 04:51:27;;;;;;;10.10;9.80;;;12.50;99.90;;;;;;6355298;22;20196;-79
2023/08/11 04:54:00;;;;;;;10.13;9.83;;;12.50;99.90;;;;;;6353779;22;20207;-79
2023/08/11 04:56:27;;;;;;;10.17;9.87;;;12.50;99.90;;;;;;6352971;22;20188;-80
2023/08/11 04:58:56;;;;;;;10.20;9.90;;;12.50;99.90;;;;;;6353844;22;20200;-79
2023/08/11 05:01:23;;;;;;;10.07;9.77;;;12.50;99.90;;;;;;6352583;22;20287;-80
2023/08/11 05:03:50;;;;;;;10.00;9.70;;;12.50;99.90;;;;;;6356192;22;20204;-80
2023/08/11 05:06:18;;;;;;;9.97;9.67;;;12.50;99.90;;;;;;6352522;22;20196;-80
2023/08/11 05:08:46;;;;;;;10.10;9.80;;;12.50;99.90;;;;;;6357741;22;20258;-79
2023/08/11 05:11:13;;;;;;;10.20;9.90;;;12.50;99.90;;;;;;6354378;22;20288;-79
2023/08/11 05:13:39;;;;;;;10.00;9.70;;;12.60;99.90;;;;;;6355614;22;20208;-80
2023/08/11 05:16:09;;;;;;;10.23;9.93;;;12.70;99.90;;;;;;6354564;22;20283;-80
2023/08/11 05:18:36;;;;;;;10.27;9.97;;;12.80;99.90;;;;;;6352800;22;20275;-80
2023/08/11 05:21:05;;;;;;;10.40;10.10;;;12.80;99.90;;;;;;6350905;22;20212;-80
2023/08/11 05:23:32;;;;;;;10.33;10.03;;;12.90;99.90;;;;;;6350808;22;20222;-80
2023/08/11 05:25:59;;;;;;;10.50;10.20;;;13.00;99.90;;;;;;6350594;22;20200;-80
2023/08/11 05:28:26;;;;;;;10.13;9.83;;;13.10;99.90;;;;;;6351793;22;20220;-81
2023/08/11 05:30:56;;;;;;;10.40;10.10;;;13.20;99.90;;;;;;6351649;22;20255;-79
2023/08/11 05:33:24;;;;;;;10.20;9.90;;;13.30;99.90;;;;;;6351989;22;20200;-79
2023/08/11 05:35:51;;;;;;;10.00;9.70;;;13.40;99.90;;;;;;6352015;22;20278;-79
2023/08/11 05:38:22;;;;;;;9.90;9.60;;;13.50;99.90;;;;;;6352084;22;20188;-81
2023/08/11 05:40:49;;;;;;;10.30;10.00;;;13.70;99.90;;;;;;6351995;22;20184;-81
2023/08/11 05:43:17;;;;;;;10.20;9.90;;;13.80;99.90;;;;;;6352744;22;20212;-81
2023/08/11 05:45:44;;;;;;;10.30;10.00;;;13.90;99.90;;;;;;6352380;22;20220;-80
2023/08/11 05:48:11;;;;;;;10.50;10.20;;;14.00;99.90;;;;;;6352280;22;20279;-81
2023/08/11 05:50:40;;;;;;;10.43;10.13;;;14.10;99.90;;;;;;6353675;22;20248;-80
2023/08/11 05:53:07;;;;;;;10.70;10.40;;;14.20;99.90;;;;;;6353563;22;20231;-80
2023/08/11 05:55:34;;;;;;;10.60;10.30;;;14.30;99.90;;;;;;6354200;22;20267;-79
2023/08/11 05:58:01;;;;;;;10.60;10.30;;;14.30;99.90;;;;;;6351898;22;20232;-80
2023/08/11 06:00:28;;;;;;;10.55;10.25;;;14.50;99.90;;;;;;6354910;22;20200;-80
2023/08/11 06:02:55;;;;;;;10.57;10.27;;;14.60;99.90;;;;;;6348445;22;20207;-79
2023/08/11 06:05:23;;;;;;;10.57;10.27;;;14.70;99.90;;;;;;6350748;22;20271;-80
2023/08/11 06:07:52;;;;;;;10.23;9.93;;;14.80;99.90;;;;;;6350051;22;20194;-79
2023/08/11 06:10:19;;;;;;;10.10;9.80;;;15.00;99.90;;;;;;6350432;22;20192;-80
2023/08/11 06:12:46;;;;;;;10.30;10.00;;;15.10;99.90;;;;;;6350527;22;20200;-80
2023/08/11 06:15:13;;;;;;;10.10;9.80;;;15.20;99.90;;;;;;6350742;22;20264;-80
2023/08/11 06:17:40;;;;;;;10.38;10.07;;;15.30;99.90;;;;;;6354132;22;20203;-79
2023/08/11 06:20:10;;;;;;;10.20;9.90;;;15.50;99.90;;;;;;6358283;22;20236;-80
2023/08/11 06:22:37;;;;;;;10.35;10.05;;;15.50;99.90;;;;;;6350548;22;20287;-80
2023/08/11 06:25:07;;;;;;;10.45;10.15;;;15.70;99.90;;;;;;6354581;22;20204;-79
2023/08/11 06:27:34;;;;;;;10.40;10.10;;;15.80;99.90;;;;;;6352403;22;20188;-80
2023/08/11 06:30:02;;;;;;;10.57;10.27;;;15.90;99.90;;;;;;6354059;22;20198;-80
2023/08/11 06:32:29;;;;;;;10.50;10.20;;;16.00;99.90;;;;;;6352720;22;20230;-80
2023/08/11 06:34:56;;;;;;;10.60;10.30;;;16.20;99.90;;;;;;6351768;22;20200;-79
2023/08/11 06:37:23;;;;;;;10.50;10.20;;;16.30;99.90;;;;;;6352559;22;20244;-80
2023/08/11 06:39:51;;;;;;;10.50;10.20;;;16.40;99.90;;;;;;6353277;22;20196;-80
2023/08/11 06:42:20;;;;;;;10.55;10.25;;;16.50;99.90;;;;;;6352070;22;20200;-80
2023/08/11 06:44:47;;;;;;;10.48;10.18;;;16.60;99.90;;;;;;6352088;22;20231;-79
2023/08/11 06:47:14;;;;;;;10.45;10.15;;;16.80;99.90;;;;;;6352597;22;20192;-80
2023/08/11 06:49:41;;;;;;;10.50;10.20;;;17.00;99.90;;;;;;6355277;22;20248;-79
2023/08/11 06:52:08;;;;;;;10.52;10.23;;;17.10;99.90;;;;;;6349652;22;20231;-80
2023/08/11 06:54:35;;;;;;;10.68;10.38;;;17.20;99.90;;;;;;6351572;22;20204;-81
2023/08/11 06:57:04;;;;;;;10.40;10.10;;;17.30;99.90;;;;;;6351882;22;20191;-80
2023/08/11 06:59:32;;;;;;;10.70;10.40;;;17.50;99.90;;;;;;6352505;22;20189;-81
2023/08/11 07:01:59;;;;;;;10.63;10.32;;;17.70;99.90;;;;;;6351797;22;20208;-81
2023/08/11 07:04:26;;;;;;;10.80;10.50;;;17.80;99.90;;;;;;6352993;22;20208;-81
2023/08/11 07:06:54;;;;;;;10.60;10.30;;;18.00;99.90;;;;;;6352439;22;20258;-81
2023/08/11 07:09:21;;;;;;;10.80;10.50;;;18.10;99.90;;;;;;6353869;22;20287;-81
2023/08/11 07:11:48;;;;;;;10.65;10.35;;;18.20;99.90;;;;;;6354677;22;20196;-80
2023/08/11 07:14:17;;;;;;;10.40;10.10;;;18.30;99.90;;;;;;6355698;22;20196;-80
2023/08/11 07:16:46;;;;;;;10.70;10.40;;;18.40;99.90;;;;;;6353726;22;20231;-81
2023/08/11 07:19:13;;;;;;;10.90;10.60;;;18.50;99.90;;;;;;6354259;22;20200;-81
2023/08/11 07:21:40;;;;;;;10.45;10.15;;;18.60;99.90;;;;;;6352781;22;20262;-81
2023/08/11 07:24:07;;;;;;;10.77;10.48;;;18.70;99.90;;;;;;6354556;22;20208;-79
2023/08/11 07:26:34;;;;;;;10.20;9.90;;;18.80;99.90;;;;;;6354717;22;20240;-80
2023/08/11 07:29:02;;;;;;;10.40;10.10;;;18.90;99.90;;;;;;6353564;22;20244;-80
2023/08/11 07:31:29;;;;;;;10.48;10.18;;;19.10;99.90;;;;;;6352399;22;20210;-81
2023/08/11 07:33:57;;;;;;;10.55;10.25;;;19.20;99.90;;;;;;6352478;22;20223;-81
2023/08/11 07:36:24;;;;;;;10.40;10.10;;;19.40;99.90;;;;;;6353373;22;20231;-80
2023/08/11 07:38:51;;;;;;;10.52;10.23;;;19.50;99.90;;;;;;6354479;22;20224;-80
2023/08/11 07:41:18;;;;;;;10.57;10.27;;;19.60;99.90;;;;;;6358926;22;20198;-80
2023/08/11 07:43:45;;;;;;;10.63;10.32;;;19.70;99.90;;;;;;6368122;22;20242;-80
2023/08/11 07:46:12;;;;;;;10.88;10.57;;;19.80;99.90;;;;;;6354068;22;20259;-81
2023/08/11 07:48:39;;;;;;;10.55;10.25;;;19.90;99.90;;;;;;6353066;22;20198;-81
2023/08/11 07:51:08;;;;;;;10.30;10.00;;;20.00;99.90;;;;;;6353132;22;20271;-80
2023/08/11 07:53:36;;;;;;;10.60;10.30;;;20.20;99.90;;;;;;6352468;22;20232;-80
2023/08/11 07:56:04;;;;;;;10.60;10.30;;;20.30;99.90;;;;;;6352373;22;20200;-80
2023/08/11 07:58:31;;;;;;;10.20;9.90;;;20.40;99.90;;;;;;6352839;22;20300;-80
2023/08/11 08:00:59;;;;;;;10.52;10.23;;;20.50;99.90;;;;;;6352963;22;20192;-81
2023/08/11 08:03:25;;;;;;;10.52;10.23;;;20.70;99.90;;;;;;6352816;22;20395;-80
2023/08/11 08:05:52;;;;;;;10.77;10.48;;;20.70;99.90;;;;;;6353561;22;20192;-81
2023/08/11 08:08:21;;;;;;;11.00;10.70;;;20.80;99.90;;;;;;6353363;22;20235;-80
2023/08/11 08:10:48;;;;;;;10.40;10.10;;;20.90;99.90;;;;;;6353942;22;20200;-80
2023/08/11 08:13:15;;;;;;;10.40;10.10;;;21.10;99.90;;;;;;6352839;22;20256;-80
2023/08/11 08:15:42;;;;;;;10.35;10.05;;;21.20;99.90;;;;;;6353505;22;20203;-80
2023/08/11 08:18:09;;;;;;;10.20;9.90;;;21.30;99.90;;;;;;6354112;22;20192;-80
2023/08/11 08:20:36;;;;;;;10.13;9.82;;;21.40;99.90;;;;;;6353836;22;20207;-80
2023/08/11 08:23:03;;;;;;;10.18;9.88;;;21.60;99.90;;;;;;6359633;22;20271;-79
2023/08/11 08:25:32;;;;;;;10.50;10.20;;;21.70;99.90;;;;;;6359795;22;20204;-80
2023/08/11 08:27:59;;;;;;;10.45;10.15;;;21.90;99.90;;;;;;6360283;22;20199;-80
2023/08/11 08:30:26;;;;;;;10.50;10.20;;;22.00;99.90;;;;;;6365338;22;20196;-81
2023/08/11 08:32:53;;;;;;;10.30;10.00;;;22.30;99.90;;;;;;6369931;22;20207;-80
2023/08/11 08:35:20;;;;;;;10.35;10.05;;;22.40;99.90;;;;;;6367555;22;20203;-80
2023/08/11 08:37:47;;;;;;;10.20;9.90;;;22.50;99.90;;;;;;6366665;22;20189;-79
2023/08/11 08:40:14;;;;;;;10.10;9.80;;;22.60;99.90;;;;;;6367116;22;20200;-79
2023/08/11 08:42:44;;;;;;;10.25;9.95;;;22.80;99.90;;;;;;6369626;22;20196;-80
2023/08/11 08:45:11;;;;;;;10.27;9.98;;;23.00;99.90;;;;;;6369450;22;20222;-81
2023/08/11 08:47:39;;;;;;;10.13;9.82;;;23.20;99.90;;;;;;6370509;22;20188;-80
2023/08/11 08:50:08;;;;;;;10.10;9.80;;;23.30;99.90;;;;;;6372755;22;20188;-80
2023/08/11 08:52:35;;;;;;;9.93;9.63;;;23.60;99.90;;;;;;6366484;22;20199;-81
2023/08/11 08:55:03;;;;;;;10.00;9.70;;;23.90;99.90;;;;;;6366813;22;20244;-80
2023/08/11 08:57:30;;;;;;;10.00;9.70;;;24.20;99.90;;;;;;6368836;22;20199;-80
2023/08/11 08:59:59;;;;;;;10.40;10.10;;;24.40;99.90;;;;;;6368656;22;20204;-80
2023/08/11 09:02:27;;;;;;;10.60;10.30;;;24.80;99.90;;;;;;6367677;22;20210;-80
2023/08/11 09:04:55;;;;;;;10.60;10.30;;;25.00;99.90;;;;;;6368129;22;20200;-80
2023/08/11 09:07:22;;;;;;;10.68;10.38;;;25.10;99.90;;;;;;6362877;22;20226;-80
2023/08/11 09:09:49;;;;;;;10.68;10.38;;;25.20;99.90;;;;;;6361890;22;20207;-81
2023/08/11 09:12:16;;;;;;;10.55;10.25;;;25.30;99.90;;;;;;6352080;22;20196;-80
2023/08/11 09:14:44;;;;;;;10.50;10.20;;;25.50;99.90;;;;;;6352550;22;20203;-81
2023/08/11 09:17:12;;;;;;;10.43;10.13;;;25.50;99.90;;;;;;6351974;22;20203;-81
2023/08/11 09:19:43;;;;;;;10.50;10.20;;;25.80;99.90;;;;;;6352707;22;20200;-80
2023/08/11 09:22:11;;;;;;;10.48;10.18;;;26.10;99.90;;;;;;6354458;22;20196;-81
2023/08/11 09:24:40;;;;;;;10.50;10.20;;;26.30;99.90;;;;;;6351663;22;20191;-80
2023/08/11 09:27:07;;;;;;;10.27;9.98;;;26.50;99.90;;;;;;6350552;22;20246;-80
2023/08/11 09:29:36;;;;;;;10.32;10.02;;;26.70;99.90;;;;;;6351435;22;20674;-81
2023/08/11 09:32:05;;;;;;;10.57;10.27;;;26.80;99.90;;;;;;6350775;22;20204;-81
2023/08/11 09:34:42;;;;;;;10.80;10.50;;;26.90;99.90;;;;;;6256940;22;20248;-84
2023/08/11 09:37:10;;;;;;;10.60;10.30;;;27.00;99.90;;;;;;6248807;22;20268;-86
2023/08/11 09:39:38;;;;;;;10.60;10.30;;;26.90;99.90;;;;;;6249223;23;20276;-85
2023/08/11 09:42:08;;;;;;;10.57;10.27;;;27.00;99.90;;;;;;6247879;23;20235;-85
2023/08/11 09:44:36;;;;;;;10.40;10.10;;;27.00;99.90;;;;;;6247851;22;20205;-85
2023/08/11 09:47:08;;;;;;;10.68;10.38;;;26.90;99.90;;;;;;6247875;22;20194;-85
2023/08/11 09:49:41;;;;;;;10.48;10.18;;;27.10;99.90;;;;;;6248506;22;20193;-85
2023/08/11 09:52:14;;;;;;;10.45;10.15;;;27.20;99.90;;;;;;6248003;22;20190;-85
2023/08/11 09:54:53;;;;;;;10.27;9.98;;;27.40;99.90;;;;;;6248346;22;20236;-85
2023/08/11 09:57:27;;;;;;;10.70;10.40;;;27.70;99.90;;;;;;6248387;23;20201;-85
2023/08/11 10:00:05;;;;;;;10.52;10.23;;;28.10;99.90;;;;;;6248837;22;20255;-85
2023/08/11 10:02:38;;;;;;;10.60;10.30;;;28.60;99.90;;;;;;6249591;22;20194;-86
2023/08/11 10:05:18;;;;;;;10.63;10.32;;;28.70;99.90;;;;;;6250361;22;20268;-85
2023/08/11 10:07:53;;;;;;;10.70;10.40;;;28.70;99.90;;;;;;6250085;22;20209;-85
2023/08/11 10:10:26;;;;;;;10.77;10.48;;;28.80;99.90;;;;;;6249958;22;20196;-85
2023/08/11 10:13:14;;;;;;;10.60;10.30;;;28.80;99.90;;;;;;6249729;22;20221;-85
2023/08/11 10:15:43;;;;;;;10.70;10.40;;;29.00;99.90;;;;;;6250020;22;20194;-85
2023/08/11 10:18:16;;;;;;;10.65;10.35;;;29.10;99.90;;;;;;6249715;22;20255;-85
2023/08/11 10:20:49;;;;;;;10.50;10.20;;;29.20;99.90;;;;;;6251263;22;20191;-85
2023/08/11 10:23:24;;;;;;;10.60;10.30;;;29.20;99.90;;;;;;6251840;22;20202;-85
2023/08/11 10:25:54;;;;;;;10.45;10.15;;;29.30;99.90;;;;;;6250652;22;20216;-85
2023/08/11 10:28:24;;;;;;;10.40;10.10;;;29.40;99.90;;;;;;6250178;22;20209;-85
2023/08/11 10:31:02;;;;;;;10.40;10.10;;;29.30;99.90;;;;;;6250047;22;20218;-85
2023/08/11 10:33:31;;;;;;;10.52;10.23;;;29.10;99.90;;;;;;6249145;22;20213;-86
2023/08/11 10:36:02;;;;;;;10.70;10.40;;;29.00;99.90;;;;;;6250519;22;20190;-84
2023/08/11 10:38:31;;;;;;;10.50;10.20;;;29.10;99.90;;;;;;6251314;22;20279;-85
2023/08/11 10:41:05;;;;;;;10.50;10.20;;;29.10;99.90;;;;;;6251220;22;20198;-84
2023/08/11 10:43:41;;;;;;;10.68;10.38;;;29.20;99.90;;;;;;6250810;22;20222;-85
2023/08/11 10:46:21;;;;;;;10.90;10.60;;;29.30;99.90;;;;;;6265713;22;20206;-85
2023/08/11 10:49:32;;;;;;;11.00;10.70;;;29.40;99.90;;;;;;6254347;22;20194;-85
2023/08/11 10:52:06;;;;;;;10.60;10.30;;;29.40;99.90;;;;;;6250551;22;20201;-84
2023/08/11 10:54:37;;;;;;;10.90;10.60;;;29.70;99.90;;;;;;6250658;22;20205;-85
2023/08/11 10:57:07;;;;;;;10.52;10.23;;;29.90;99.90;;;;;;6250645;22;20198;-85
2023/08/11 10:59:35;;;;;;;10.70;10.40;;;30.10;99.90;;;;;;6251000;22;20209;-84
2023/08/11 11:02:03;;;;;;;10.60;10.30;;;30.00;99.90;;;;;;6250924;22;20285;-84
2023/08/11 11:04:33;;;;;;;10.63;10.32;;;30.10;99.90;;;;;;6250992;22;20213;-85
2023/08/11 11:07:02;;;;;;;10.80;10.50;;;30.30;99.90;;;;;;6250473;22;20225;-85
2023/08/11 11:09:30;;;;;;;10.77;10.48;;;30.50;99.90;;;;;;6250685;22;20202;-85
2023/08/11 11:12:00;;;;;;;10.48;10.18;;;31.00;99.90;;;;;;6268994;22;20178;-83
2023/08/11 11:14:37;;;;;;;10.07;9.77;;;31.20;99.90;;;;;;6275892;22;20186;-84
2023/08/11 11:17:07;;;;;;;10.15;9.85;;;31.10;99.90;;;;;;6275965;22;20284;-85
2023/08/11 11:19:38;;;;;;;10.40;10.10;;;30.80;99.90;;;;;;6252910;22;20198;-87
2023/08/11 11:22:10;;;;;;;10.25;9.95;;;30.80;99.90;;;;;;6250658;22;20200;-87
2023/08/11 11:24:41;;;;;;;10.20;9.90;;;30.70;99.90;;;;;;6250382;22;20202;-86
2023/08/11 11:27:11;;;;;;;10.10;9.80;;;30.70;99.90;;;;;;6249233;22;20190;-86
2023/08/11 11:29:40;;;;;;;10.18;9.88;;;30.70;99.90;;;;;;6248983;22;20214;-86
2023/08/11 11:32:12;;;;;;;10.35;10.05;;;30.70;99.90;;;;;;6248916;22;20198;-86
2023/08/11 11:34:40;;;;;;;10.20;9.90;;;30.60;99.90;;;;;;6274903;22;20253;-85
2023/08/11 11:37:11;;;;;;;9.90;9.60;;;30.70;99.90;;;;;;6273638;22;20175;-86
2023/08/11 11:39:39;;;;;;;9.88;9.57;;;30.70;99.90;;;;;;6273701;22;20249;-85
2023/08/11 11:42:10;;;;;;;10.00;9.70;;;30.90;99.90;;;;;;6253612;22;20198;-87
2023/08/11 11:44:41;;;;;;;10.13;9.82;;;31.00;99.90;;;;;;6248160;22;20206;-86
2023/08/11 11:47:10;;;;;;;10.00;9.70;;;30.90;99.90;;;;;;6251960;22;20205;-86
2023/08/11 11:49:38;;;;;;;10.00;9.70;;;31.00;99.90;;;;;;6253915;22;20204;-86
2023/08/11 11:52:08;;;;;;;10.07;9.77;;;31.30;99.90;;;;;;6254576;22;20213;-86
2023/08/11 11:54:36;;;;;;;10.23;9.93;;;31.50;99.90;;;;;;6249715;22;20276;-87
2023/08/11 11:57:07;;;;;;;10.45;10.15;;;31.80;99.90;;;;;;6247519;22;20197;-87
2023/08/11 11:59:42;;;;;;;10.48;10.18;;;32.30;99.90;;;;;;6247489;22;20194;-86
2023/08/11 12:02:13;;;;;;;10.00;9.70;;;32.40;99.90;;;;;;6247569;22;20246;-87
2023/08/11 12:04:45;;;;;;;10.25;9.95;;;32.60;99.90;;;;;;6249330;22;20206;-86
2023/08/11 12:10:21;;;;;;;10.30;10.00;;;32.70;99.90;;;;;;5153657;27;20641;-86
2023/08/11 12:13:05;;;;;;;10.20;9.90;;;32.90;99.90;;;;;;5129098;27;20232;-87
2023/08/11 12:15:37;;;;;;;10.13;9.82;;;33.00;99.90;;;;;;5113476;27;20260;-86
2023/08/11 12:18:08;;;;;;;9.98;9.68;;;32.90;99.90;;;;;;5113900;28;20237;-86
2023/08/11 12:20:39;;;;;;;10.20;9.90;;;32.60;99.90;;;;;;5113133;28;20229;-86
2023/08/11 12:23:08;;;;;;;10.25;9.95;;;32.60;99.90;;;;;;5113080;28;20279;-86
2023/08/11 12:25:38;;;;;;;10.18;9.88;;;32.50;99.90;;;;;;5112604;28;20240;-86
2023/08/11 12:28:06;;;;;;;10.30;10.00;;;32.80;99.90;;;;;;5112671;27;20287;-87
2023/08/11 12:30:33;;;;;;;9.95;9.65;;;33.10;99.90;;;;;;5112825;28;20324;-87
2023/08/11 12:33:00;;;;;;;9.77;9.48;;;33.30;99.90;;;;;;5113360;27;20232;-86
2023/08/11 12:35:32;;;;;;;10.20;9.90;;;33.40;99.90;;;;;;5113909;28;20237;-86
2023/08/11 12:37:59;;;;;;;10.13;9.82;;;33.80;99.90;;;;;;5112855;28;20312;-86
2023/08/11 12:40:28;;;;;;;10.25;9.95;;;33.70;99.90;;;;;;5112960;27;20244;-87
2023/08/11 12:43:01;;;;;;;10.40;10.10;;;34.00;99.90;;;;;;5112291;27;20233;-86
2023/08/11 12:45:31;;;;;;;10.60;10.30;;;34.10;99.90;;;;;;5112331;28;20793;-86
2023/08/11 12:48:00;;;;;;;10.50;10.20;;;34.10;99.90;;;;;;5112377;28;20306;-86
2023/08/11 12:50:33;;;;;;;10.50;10.20;;;34.20;99.90;;;;;;5112044;27;20231;-85
2023/08/11 12:53:04;;;;;;;10.60;10.30;;;34.30;99.90;;;;;;5111896;28;20260;-84
2023/08/11 12:55:37;;;;;;;10.52;10.23;;;34.40;99.90;;;;;;5111632;28;20228;-86
2023/08/11 12:58:18;;;;;;;10.60;10.30;;;34.40;99.90;;;;;;5111873;27;20258;-85
2023/08/11 13:00:48;;;;;;;10.70;10.40;;;34.40;99.90;;;;;;5112462;28;20225;-85
2023/08/11 13:03:19;;;;;;;10.55;10.25;;;34.20;99.90;;;;;;5112248;28;20229;-85
2023/08/11 13:05:53;;;;;;;10.50;10.20;;;34.10;99.90;;;;;;5112627;28;20729;-85
2023/08/11 13:08:30;;;;;;;10.57;10.27;;;34.40;99.90;;;;;;5128520;27;20231;-84
2023/08/11 13:11:02;;;;;;;10.50;10.20;;;34.40;99.90;;;;;;5136403;27;20252;-82
2023/08/11 13:13:32;;;;;;;10.50;10.20;;;34.60;99.90;;;;;;5135780;27;20224;-85
2023/08/11 13:16:00;;;;;;;10.50;10.20;;;34.80;99.90;;;;;;5122715;28;20255;-85
2023/08/11 13:18:31;;;;;;;10.80;10.50;;;34.90;99.90;;;;;;5112629;28;20232;-85
2023/08/11 13:21:02;;;;;;;10.35;10.05;;;35.10;99.90;;;;;;5101507;28;20263;-85
2023/08/11 13:23:33;;;;;;;10.75;10.45;;;35.10;99.90;;;;;;5107047;28;20220;-83
2023/08/11 13:26:02;;;;;;;10.80;10.50;;;34.90;99.90;;;;;;5122110;28;20218;-83
2023/08/11 13:28:36;;;;;;;10.50;10.20;;;35.10;99.90;;;;;;5122133;28;20265;-84
2023/08/11 13:31:04;;;;;;;10.35;10.05;;;35.30;99.90;;;;;;5117001;28;20272;-84
2023/08/11 13:33:33;;;;;;;10.45;10.15;;;35.40;99.90;;;;;;5098481;28;20225;-85
2023/08/11 13:36:03;;;;;;;9.95;9.65;;;35.40;99.90;;;;;;5098705;28;20249;-85
2023/08/11 13:38:33;;;;;;;10.10;9.80;;;35.40;99.90;;;;;;5098329;28;20283;-85
2023/08/11 13:41:01;;;;;;;9.98;9.68;;;35.40;99.90;;;;;;5098019;28;20306;-85
2023/08/11 13:43:29;;;;;;;10.05;9.75;;;35.60;99.90;;;;;;5097709;28;20237;-85
2023/08/11 13:46:00;;;;;;;10.05;9.75;;;35.80;99.90;;;;;;5097736;28;20291;-85
2023/08/11 13:48:31;;;;;;;10.30;10.00;;;36.00;99.90;;;;;;5098377;28;20233;-85
2023/08/11 13:51:03;;;;;;;10.27;9.98;;;36.30;99.90;;;;;;5097891;28;20279;-85
2023/08/11 13:53:35;;;;;;;10.05;9.75;;;36.50;99.90;;;;;;5097412;28;20291;-85
2023/08/11 13:56:05;;;;;;;10.50;10.20;;;36.40;99.90;;;;;;5097545;28;20236;-85
2023/08/11 13:58:33;;;;;;;10.60;10.30;;;36.00;99.90;;;;;;5097310;28;20233;-85
2023/08/11 14:01:03;;;;;;;10.57;10.27;;;35.60;99.90;;;;;;5097508;28;20229;-85
2023/08/11 14:03:32;;;;;;;10.82;10.52;;;35.30;99.90;;;;;;5097358;28;20230;-85
2023/08/11 14:06:06;;;;;;;10.82;10.52;;;35.20;99.90;;;;;;5097197;28;20224;-85
2023/08/11 14:08:39;;;;;;;10.57;10.27;;;35.20;99.90;;;;;;5097036;28;20225;-85
2023/08/11 14:11:14;;;;;;;10.50;10.20;;;35.30;99.90;;;;;;5097589;28;20288;-85
2023/08/11 14:13:50;;;;;;;10.40;10.10;;;35.60;99.90;;;;;;5096640;28;20232;-85
2023/08/11 14:16:27;;;;;;;10.52;10.23;;;35.80;99.90;;;;;;5096656;28;20318;-85
2023/08/11 14:19:03;;;;;;;10.52;10.23;;;36.10;99.90;;;;;;5096571;28;20221;-85
2023/08/11 14:21:30;;;;;;;10.40;10.10;;;36.00;99.90;;;;;;5096316;28;20314;-85
2023/08/11 14:23:59;;;;;;;10.38;10.07;;;35.80;99.90;;;;;;5097137;28;20249;-85
2023/08/11 14:26:26;;;;;;;10.40;10.10;;;35.80;99.90;;;;;;5096880;28;20282;-85
2023/08/11 14:28:54;;;;;;;10.48;10.18;;;35.70;99.90;;;;;;5096302;28;20232;-86
2023/08/11 14:31:24;;;;;;;10.60;10.30;;;35.70;99.90;;;;;;5095907;28;20229;-85
2023/08/11 14:33:53;;;;;;;10.55;10.25;;;35.40;99.90;;;;;;5096669;28;20233;-85
2023/08/11 14:36:22;;;;;;;10.70;10.40;;;35.10;99.90;;;;;;5096607;28;20294;-84
2023/08/11 14:38:53;;;;;;;10.48;10.18;;;34.90;99.90;;;;;;5096747;28;20237;-85
2023/08/11 14:41:26;;;;;;;10.70;10.40;;;34.80;99.90;;;;;;5096322;28;20233;-85
2023/08/11 14:43:56;;;;;;;10.60;10.30;;;35.10;99.90;;;;;;5096577;28;20241;-85
2023/08/11 14:46:27;;;;;;;10.60;10.30;;;35.30;99.90;;;;;;5096527;28;20218;-85
2023/08/11 14:49:04;;;;;;;10.60;10.30;;;35.00;99.90;;;;;;5096456;28;20252;-85
2023/08/11 14:51:36;;;;;;;10.57;10.27;;;35.10;99.90;;;;;;5095960;28;20232;-85
2023/08/11 14:54:14;;;;;;;10.40;10.10;;;35.10;99.90;;;;;;5096240;28;20241;-85
2023/08/11 14:56:46;;;;;;;10.40;10.10;;;35.00;99.90;;;;;;5096344;28;20230;-85
2023/08/11 14:59:20;;;;;;;10.60;10.30;;;34.80;99.90;;;;;;5099968;28;20222;-84
2023/08/11 15:01:53;;;;;;;10.20;9.90;;;34.70;99.90;;;;;;5120658;28;20239;-83
2023/08/11 15:04:26;;;;;;;9.95;9.65;;;34.70;99.90;;;;;;5114895;28;20279;-85
2023/08/11 15:06:54;;;;;;;10.13;9.82;;;34.90;99.90;;;;;;5096521;28;20229;-85
2023/08/11 15:09:26;;;;;;;10.23;9.93;;;35.00;99.90;;;;;;5115550;28;20244;-83
2023/08/11 15:11:56;;;;;;;10.43;10.13;;;35.00;99.90;;;;;;5121012;28;20240;-82
2023/08/11 15:14:29;;;;;;;10.35;10.05;;;35.30;99.90;;;;;;5116664;28;20228;-85
2023/08/11 15:17:01;;;;;;;10.50;10.20;;;35.40;99.90;;;;;;5095771;28;20229;-85
2023/08/11 15:19:41;;;;;;;10.60;10.30;;;35.70;99.90;;;;;;5095254;28;20229;-85
2023/08/11 15:22:18;;;;;;;10.80;10.50;;;35.80;99.90;;;;;;5095420;28;20237;-86
2023/08/11 15:24:48;;;;;;;10.82;10.52;;;36.00;99.90;;;;;;5095575;28;20248;-85
2023/08/11 15:27:24;;;;;;;10.93;10.63;;;36.10;99.90;;;;;;5095290;28;20301;-85
2023/08/11 15:29:58;;;;;;;10.80;10.50;;;36.40;99.90;;;;;;5095240;28;20251;-85
2023/08/11 15:32:40;;;;;;;10.88;10.57;;;36.20;99.90;;;;;;5094677;28;20229;-85
2023/08/11 15:35:08;;;;;;;11.10;10.80;;;36.20;99.90;;;;;;5144434;22;20267;-80
2023/08/11 15:37:35;;;;;;;11.02;10.73;;;36.30;99.90;;;;;;5124750;28;20232;-80
2023/08/11 15:40:03;;;;;;;10.73;10.43;;;36.50;99.90;;;;;;5123475;28;20243;-80
2023/08/11 15:42:31;;;;;;;10.70;10.40;;;36.30;99.90;;;;;;5123979;28;20229;-81
2023/08/11 15:44:58;;;;;;;10.73;10.43;;;35.90;99.90;;;;;;5122508;28;20233;-80
2023/08/11 15:47:25;;;;;;;11.00;10.70;;;35.50;99.90;;;;;;5122949;28;20239;-81
2023/08/11 15:49:53;;;;;;;10.80;10.50;;;35.50;99.90;;;;;;5122659;28;20228;-80
2023/08/11 15:52:22;;;;;;;10.82;10.52;;;35.40;99.90;;;;;;5123980;28;20284;-80
2023/08/11 15:54:49;;;;;;;10.77;10.48;;;35.80;99.90;;;;;;5122655;28;20278;-80
2023/08/11 15:57:17;;;;;;;10.82;10.52;;;36.00;99.90;;;;;;5121588;28;20252;-80
2023/08/11 15:59:44;;;;;;;10.60;10.30;;;36.20;99.90;;;;;;5122252;28;20229;-80
2023/08/11 16:02:11;;;;;;;10.93;10.63;;;36.40;99.90;;;;;;5122692;28;20300;-81
2023/08/11 16:04:38;;;;;;;10.60;10.30;;;36.40;99.90;;;;;;5122390;28;20233;-81
2023/08/11 16:07:06;;;;;;;10.50;10.20;;;36.40;99.90;;;;;;5122731;28;20296;-81
2023/08/11 16:09:33;;;;;;;10.63;10.32;;;36.60;99.90;;;;;;5122012;28;20228;-81
2023/08/11 16:12:01;;;;;;;10.73;10.43;;;36.70;99.90;;;;;;5123333;28;20263;-81
2023/08/11 16:14:27;;;;;;;10.75;10.45;;;36.60;99.90;;;;;;5126323;28;20229;-80
2023/08/11 16:16:55;;;;;;;10.75;10.45;;;36.30;99.90;;;;;;5122738;28;20235;-80